sensor_id;sensor_type;location;lat;lon;timestamp;temperature;humidity
16247;DHT22;8231;50.866;7.944;2023-01-09T00:01:11;7.30;99.90
16247;DHT22;8231;50.866;7.944;2023-01-09T00:03:40;7.30;99.90
16247;DHT22;8231;50.866;7.944;2023-01-09T00:06:08;7.30;99.90
16247;DHT22;8231;50.866;7.944;2023-01-09T00:08:36;7.30;99.90
16247;DHT22;8231;50.866;7.944;2023-01-09T00:11:05;7.30;99.90
16247;DHT22;8231;50.866;7.944;2023-01-09T00:13:34;7.30;99.90
16247;DHT22;8231;50.866;7.944;2023-01-09T00:16:03;7.30;99.90
16247;DHT22;8231;50.866;7.944;2023-01-09T00:18:32;7.30;99.90
16247;DHT22;8231;50.866;7.944;2023-01-09T00:21:00;7.40;99.90
16247;DHT22;8231;50.866;7.944;2023-01-09T00:23:28;7.30;99.90
16247;DHT22;8231;50.866;7.944;2023-01-09T00:26:03;7.30;99.90
16247;DHT22;8231;50.866;7.944;2023-01-09T00:28:33;7.30;99.90
16247;DHT22;8231;50.866;7.944;2023-01-09T00:31:03;7.30;99.90
16247;DHT22;8231;50.866;7.944;2023-01-09T00:33:34;7.30;99.90
16247;DHT22;8231;50.866;7.944;2023-01-09T00:36:03;7.20;99.90
16247;DHT22;8231;50.866;7.944;2023-01-09T00:38:32;7.20;99.90
16247;DHT22;8231;50.866;7.944;2023-01-09T00:41:00;7.20;99.90
16247;DHT22;8231;50.866;7.944;2023-01-09T00:43:31;7.10;99.90
16247;DHT22;8231;50.866;7.944;2023-01-09T00:46:03;7.10;99.90
16247;DHT22;8231;50.866;7.944;2023-01-09T00:48:35;7.10;99.90
16247;DHT22;8231;50.866;7.944;2023-01-09T00:51:04;7.10;99.90
16247;DHT22;8231;50.866;7.944;2023-01-09T00:53:36;7.00;99.90
16247;DHT22;8231;50.866;7.944;2023-01-09T00:56:07;7.00;99.90
16247;DHT22;8231;50.866;7.944;2023-01-09T00:58:36;7.00;99.90
16247;DHT22;8231;50.866;7.944;2023-01-09T01:01:06;7.00;99.90
16247;DHT22;8231;50.866;7.944;2023-01-09T01:03:34;7.00;99.90
16247;DHT22;8231;50.866;7.944;2023-01-09T01:06:02;7.00;99.90
16247;DHT22;8231;50.866;7.944;2023-01-09T01:08:48;6.90;99.90
16247;DHT22;8231;50.866;7.944;2023-01-09T01:11:16;6.80;99.90
16247;DHT22;8231;50.866;7.944;2023-01-09T01:13:44;6.80;99.90
16247;DHT22;8231;50.866;7.944;2023-01-09T01:16:14;6.70;99.90
16247;DHT22;8231;50.866;7.944;2023-01-09T01:18:44;7.00;99.90
16247;DHT22;8231;50.866;7.944;2023-01-09T01:21:13;6.70;99.90
16247;DHT22;8231;50.866;7.944;2023-01-09T01:23:41;6.70;99.90
16247;DHT22;8231;50.866;7.944;2023-01-09T01:26:11;6.70;99.90
16247;DHT22;8231;50.866;7.944;2023-01-09T01:28:40;6.70;99.90
16247;DHT22;8231;50.866;7.944;2023-01-09T01:31:13;6.60;99.90
16247;DHT22;8231;50.866;7.944;2023-01-09T01:33:43;6.60;99.90
16247;DHT22;8231;50.866;7.944;2023-01-09T01:36:11;6.60;99.90
16247;DHT22;8231;50.866;7.944;2023-01-09T01:38:42;6.60;99.90
16247;DHT22;8231;50.866;7.944;2023-01-09T01:41:10;6.60;99.90
16247;DHT22;8231;50.866;7.944;2023-01-09T01:43:48;6.60;99.90
16247;DHT22;8231;50.866;7.944;2023-01-09T01:46:17;6.60;99.90
16247;DHT22;8231;50.866;7.944;2023-01-09T01:48:47;6.60;99.90
16247;DHT22;8231;50.866;7.944;2023-01-09T01:51:18;6.60;99.90
16247;DHT22;8231;50.866;7.944;2023-01-09T01:53:48;6.60;99.90
16247;DHT22;8231;50.866;7.944;2023-01-09T01:56:19;6.60;99.90
16247;DHT22;8231;50.866;7.944;2023-01-09T01:58:53;6.60;99.90
16247;DHT22;8231;50.866;7.944;2023-01-09T02:01:23;6.60;99.90
16247;DHT22;8231;50.866;7.944;2023-01-09T02:03:56;6.60;99.90
16247;DHT22;8231;50.866;7.944;2023-01-09T02:06:25;6.50;99.90
16247;DHT22;8231;50.866;7.944;2023-01-09T02:08:53;6.50;99.90
16247;DHT22;8231;50.866;7.944;2023-01-09T02:11:22;6.50;99.90
16247;DHT22;8231;50.866;7.944;2023-01-09T02:13:50;6.50;99.90
16247;DHT22;8231;50.866;7.944;2023-01-09T02:16:27;6.50;99.90
16247;DHT22;8231;50.866;7.944;2023-01-09T02:19:04;6.50;99.90
16247;DHT22;8231;50.866;7.944;2023-01-09T02:21:43;6.50;99.90
16247;DHT22;8231;50.866;7.944;2023-01-09T02:27:33;6.40;99.90
16247;DHT22;8231;50.866;7.944;2023-01-09T02:30:31;6.40;99.90
16247;DHT22;8231;50.866;7.944;2023-01-09T02:33:20;6.40;99.90
16247;DHT22;8231;50.866;7.944;2023-01-09T02:36:05;6.40;99.90
16247;DHT22;8231;50.866;7.944;2023-01-09T02:38:45;6.40;99.90
16247;DHT22;8231;50.866;7.944;2023-01-09T02:41:19;6.40;99.90
16247;DHT22;8231;50.866;7.944;2023-01-09T02:44:14;6.40;99.90
16247;DHT22;8231;50.866;7.944;2023-01-09T02:46:43;6.30;99.90
16247;DHT22;8231;50.866;7.944;2023-01-09T02:49:12;6.30;99.90
16247;DHT22;8231;50.866;7.944;2023-01-09T02:51:50;6.30;99.90
16247;DHT22;8231;50.866;7.944;2023-01-09T02:54:32;6.70;99.90
16247;DHT22;8231;50.866;7.944;2023-01-09T02:57:20;6.30;99.90
16247;DHT22;8231;50.866;7.944;2023-01-09T03:00:04;6.20;99.90
16247;DHT22;8231;50.866;7.944;2023-01-09T03:02:41;6.20;99.90
16247;DHT22;8231;50.866;7.944;2023-01-09T03:05:16;6.20;99.90
16247;DHT22;8231;50.866;7.944;2023-01-09T03:07:50;6.20;99.90
16247;DHT22;8231;50.866;7.944;2023-01-09T03:10:29;6.10;99.90
16247;DHT22;8231;50.866;7.944;2023-01-09T03:13:00;6.10;99.90
16247;DHT22;8231;50.866;7.944;2023-01-09T03:15:33;6.20;99.90
16247;DHT22;8231;50.866;7.944;2023-01-09T03:18:06;6.10;99.90
16247;DHT22;8231;50.866;7.944;2023-01-09T03:20:36;6.20;99.90
16247;DHT22;8231;50.866;7.944;2023-01-09T03:23:06;6.20;99.90
16247;DHT22;8231;50.866;7.944;2023-01-09T03:25:34;6.10;99.90
16247;DHT22;8231;50.866;7.944;2023-01-09T03:28:04;6.10;99.90
16247;DHT22;8231;50.866;7.944;2023-01-09T03:30:34;6.10;99.90
16247;DHT22;8231;50.866;7.944;2023-01-09T03:33:04;6.10;99.90
16247;DHT22;8231;50.866;7.944;2023-01-09T03:35:32;6.10;99.90
16247;DHT22;8231;50.866;7.944;2023-01-09T03:38:00;6.10;99.90
16247;DHT22;8231;50.866;7.944;2023-01-09T03:40:28;6.10;99.90
16247;DHT22;8231;50.866;7.944;2023-01-09T03:42:56;6.00;99.90
16247;DHT22;8231;50.866;7.944;2023-01-09T03:45:24;6.00;99.90
16247;DHT22;8231;50.866;7.944;2023-01-09T03:47:52;6.10;99.90
16247;DHT22;8231;50.866;7.944;2023-01-09T03:50:21;6.10;99.90
16247;DHT22;8231;50.866;7.944;2023-01-09T03:52:49;6.10;99.90
16247;DHT22;8231;50.866;7.944;2023-01-09T03:55:18;6.10;99.90
16247;DHT22;8231;50.866;7.944;2023-01-09T03:57:46;6.10;99.90
16247;DHT22;8231;50.866;7.944;2023-01-09T04:00:14;6.10;99.90
16247;DHT22;8231;50.866;7.944;2023-01-09T04:02:42;6.10;99.90
16247;DHT22;8231;50.866;7.944;2023-01-09T04:05:11;6.10;99.90
16247;DHT22;8231;50.866;7.944;2023-01-09T04:07:40;6.10;99.90
16247;DHT22;8231;50.866;7.944;2023-01-09T04:10:09;6.00;99.90
16247;DHT22;8231;50.866;7.944;2023-01-09T04:12:37;6.10;99.90
16247;DHT22;8231;50.866;7.944;2023-01-09T04:15:06;6.10;99.90
16247;DHT22;8231;50.866;7.944;2023-01-09T04:17:34;6.10;99.90
16247;DHT22;8231;50.866;7.944;2023-01-09T04:20:03;6.10;99.90
16247;DHT22;8231;50.866;7.944;2023-01-09T04:22:31;6.00;99.90
16247;DHT22;8231;50.866;7.944;2023-01-09T04:25:01;6.00;99.90
16247;DHT22;8231;50.866;7.944;2023-01-09T04:27:29;6.00;99.90
16247;DHT22;8231;50.866;7.944;2023-01-09T04:29:57;6.00;99.90
16247;DHT22;8231;50.866;7.944;2023-01-09T04:32:25;6.00;99.90
16247;DHT22;8231;50.866;7.944;2023-01-09T04:34:54;6.00;99.90
16247;DHT22;8231;50.866;7.944;2023-01-09T04:37:23;6.00;99.90
16247;DHT22;8231;50.866;7.944;2023-01-09T04:39:51;6.00;99.90
16247;DHT22;8231;50.866;7.944;2023-01-09T04:42:23;6.00;99.90
16247;DHT22;8231;50.866;7.944;2023-01-09T04:44:51;5.90;99.90
16247;DHT22;8231;50.866;7.944;2023-01-09T04:47:20;5.90;99.90
16247;DHT22;8231;50.866;7.944;2023-01-09T04:49:49;5.80;99.90
16247;DHT22;8231;50.866;7.944;2023-01-09T04:52:18;5.70;99.90
16247;DHT22;8231;50.866;7.944;2023-01-09T04:54:46;5.60;99.90
16247;DHT22;8231;50.866;7.944;2023-01-09T04:57:14;5.60;99.90
16247;DHT22;8231;50.866;7.944;2023-01-09T04:59:44;5.50;99.90
16247;DHT22;8231;50.866;7.944;2023-01-09T05:02:12;5.40;99.90
16247;DHT22;8231;50.866;7.944;2023-01-09T05:04:40;5.30;99.90
16247;DHT22;8231;50.866;7.944;2023-01-09T05:07:09;5.30;99.90
16247;DHT22;8231;50.866;7.944;2023-01-09T05:09:37;5.20;99.90
16247;DHT22;8231;50.866;7.944;2023-01-09T05:12:05;5.20;99.90
16247;DHT22;8231;50.866;7.944;2023-01-09T05:14:33;5.20;99.90
16247;DHT22;8231;50.866;7.944;2023-01-09T05:17:03;5.10;99.90
16247;DHT22;8231;50.866;7.944;2023-01-09T05:19:31;5.10;99.90
16247;DHT22;8231;50.866;7.944;2023-01-09T05:22:00;5.10;99.90
16247;DHT22;8231;50.866;7.944;2023-01-09T05:24:28;5.10;99.90
16247;DHT22;8231;50.866;7.944;2023-01-09T05:26:56;5.20;99.90
16247;DHT22;8231;50.866;7.944;2023-01-09T05:29:24;5.00;99.90
16247;DHT22;8231;50.866;7.944;2023-01-09T05:31:52;4.80;99.90
16247;DHT22;8231;50.866;7.944;2023-01-09T05:34:23;4.80;99.90
16247;DHT22;8231;50.866;7.944;2023-01-09T05:36:51;4.60;99.90
16247;DHT22;8231;50.866;7.944;2023-01-09T05:39:19;4.50;99.90
16247;DHT22;8231;50.866;7.944;2023-01-09T05:41:47;4.40;99.90
16247;DHT22;8231;50.866;7.944;2023-01-09T05:44:16;4.50;99.90
16247;DHT22;8231;50.866;7.944;2023-01-09T05:46:44;4.50;99.90
16247;DHT22;8231;50.866;7.944;2023-01-09T05:49:12;4.50;99.90
16247;DHT22;8231;50.866;7.944;2023-01-09T05:51:41;4.40;99.90
16247;DHT22;8231;50.866;7.944;2023-01-09T05:54:09;4.40;99.90
16247;DHT22;8231;50.866;7.944;2023-01-09T05:56:37;4.40;99.90
16247;DHT22;8231;50.866;7.944;2023-01-09T05:59:05;4.40;99.90
16247;DHT22;8231;50.866;7.944;2023-01-09T06:01:33;4.40;99.90
16247;DHT22;8231;50.866;7.944;2023-01-09T06:04:02;4.40;99.90
16247;DHT22;8231;50.866;7.944;2023-01-09T06:06:30;4.50;99.90
16247;DHT22;8231;50.866;7.944;2023-01-09T06:08:59;4.50;99.90
16247;DHT22;8231;50.866;7.944;2023-01-09T06:11:29;4.60;99.90
16247;DHT22;8231;50.866;7.944;2023-01-09T06:13:57;4.70;99.90
16247;DHT22;8231;50.866;7.944;2023-01-09T06:16:25;4.70;99.90
16247;DHT22;8231;50.866;7.944;2023-01-09T06:18:53;4.70;99.90
16247;DHT22;8231;50.866;7.944;2023-01-09T06:21:21;4.80;99.90
16247;DHT22;8231;50.866;7.944;2023-01-09T06:23:49;4.80;99.90
16247;DHT22;8231;50.866;7.944;2023-01-09T06:26:18;4.80;99.90
16247;DHT22;8231;50.866;7.944;2023-01-09T06:28:46;4.80;99.90
16247;DHT22;8231;50.866;7.944;2023-01-09T06:31:14;4.90;99.90
16247;DHT22;8231;50.866;7.944;2023-01-09T06:33:42;5.00;99.90
16247;DHT22;8231;50.866;7.944;2023-01-09T06:36:10;5.00;99.90
16247;DHT22;8231;50.866;7.944;2023-01-09T06:38:38;5.00;99.90
16247;DHT22;8231;50.866;7.944;2023-01-09T06:41:07;5.00;99.90
16247;DHT22;8231;50.866;7.944;2023-01-09T06:43:36;5.10;99.90
16247;DHT22;8231;50.866;7.944;2023-01-09T06:46:05;5.10;99.90
16247;DHT22;8231;50.866;7.944;2023-01-09T06:48:33;5.10;99.90
16247;DHT22;8231;50.866;7.944;2023-01-09T06:51:01;5.10;99.90
16247;DHT22;8231;50.866;7.944;2023-01-09T06:53:29;5.10;99.90
16247;DHT22;8231;50.866;7.944;2023-01-09T06:55:57;5.10;99.90
16247;DHT22;8231;50.866;7.944;2023-01-09T06:58:25;5.10;99.90
16247;DHT22;8231;50.866;7.944;2023-01-09T07:00:56;5.10;99.90
16247;DHT22;8231;50.866;7.944;2023-01-09T07:03:25;5.10;99.90
16247;DHT22;8231;50.866;7.944;2023-01-09T07:05:53;5.20;99.90
16247;DHT22;8231;50.866;7.944;2023-01-09T07:08:22;5.30;99.90
16247;DHT22;8231;50.866;7.944;2023-01-09T07:10:50;5.30;99.90
16247;DHT22;8231;50.866;7.944;2023-01-09T07:13:18;5.30;99.90
16247;DHT22;8231;50.866;7.944;2023-01-09T07:15:46;5.30;99.90
16247;DHT22;8231;50.866;7.944;2023-01-09T07:18:17;5.30;99.90
16247;DHT22;8231;50.866;7.944;2023-01-09T07:20:45;5.30;99.90
16247;DHT22;8231;50.866;7.944;2023-01-09T07:23:14;5.30;99.90
16247;DHT22;8231;50.866;7.944;2023-01-09T07:25:44;5.30;99.90
16247;DHT22;8231;50.866;7.944;2023-01-09T07:28:13;5.30;99.90
16247;DHT22;8231;50.866;7.944;2023-01-09T07:30:41;5.20;99.90
16247;DHT22;8231;50.866;7.944;2023-01-09T07:33:09;5.30;99.90
16247;DHT22;8231;50.866;7.944;2023-01-09T07:35:38;5.30;99.90
16247;DHT22;8231;50.866;7.944;2023-01-09T07:38:06;5.20;99.90
16247;DHT22;8231;50.866;7.944;2023-01-09T07:40:35;5.20;99.90
16247;DHT22;8231;50.866;7.944;2023-01-09T07:43:03;5.20;99.90
16247;DHT22;8231;50.866;7.944;2023-01-09T07:45:31;5.20;99.90
16247;DHT22;8231;50.866;7.944;2023-01-09T07:47:59;5.30;99.90
16247;DHT22;8231;50.866;7.944;2023-01-09T07:50:27;5.20;99.90
16247;DHT22;8231;50.866;7.944;2023-01-09T07:52:57;5.20;99.90
16247;DHT22;8231;50.866;7.944;2023-01-09T07:55:25;5.30;99.90
16247;DHT22;8231;50.866;7.944;2023-01-09T07:57:53;5.30;99.90
16247;DHT22;8231;50.866;7.944;2023-01-09T08:00:21;5.30;99.90
16247;DHT22;8231;50.866;7.944;2023-01-09T08:02:52;5.30;99.90
16247;DHT22;8231;50.866;7.944;2023-01-09T08:05:21;5.30;99.90
16247;DHT22;8231;50.866;7.944;2023-01-09T08:07:49;5.30;99.90
16247;DHT22;8231;50.866;7.944;2023-01-09T08:10:19;5.40;99.90
16247;DHT22;8231;50.866;7.944;2023-01-09T08:12:48;5.40;99.90
16247;DHT22;8231;50.866;7.944;2023-01-09T08:15:16;5.50;99.90
16247;DHT22;8231;50.866;7.944;2023-01-09T08:17:45;5.50;99.90
16247;DHT22;8231;50.866;7.944;2023-01-09T08:20:15;5.50;99.90
16247;DHT22;8231;50.866;7.944;2023-01-09T08:22:45;5.50;99.90
16247;DHT22;8231;50.866;7.944;2023-01-09T08:25:16;5.60;99.90
16247;DHT22;8231;50.866;7.944;2023-01-09T08:27:46;5.60;99.90
16247;DHT22;8231;50.866;7.944;2023-01-09T08:30:15;5.60;99.90
16247;DHT22;8231;50.866;7.944;2023-01-09T08:32:48;5.60;99.90
16247;DHT22;8231;50.866;7.944;2023-01-09T08:35:17;5.60;99.90
16247;DHT22;8231;50.866;7.944;2023-01-09T08:37:47;5.70;99.90
16247;DHT22;8231;50.866;7.944;2023-01-09T08:40:16;5.70;99.90
16247;DHT22;8231;50.866;7.944;2023-01-09T08:42:45;5.70;99.90
16247;DHT22;8231;50.866;7.944;2023-01-09T08:45:31;5.70;99.90
16247;DHT22;8231;50.866;7.944;2023-01-09T08:48:17;5.80;99.90
16247;DHT22;8231;50.866;7.944;2023-01-09T08:50:45;5.80;99.90
16247;DHT22;8231;50.866;7.944;2023-01-09T08:53:13;5.80;99.90
16247;DHT22;8231;50.866;7.944;2023-01-09T08:55:42;5.90;99.90
16247;DHT22;8231;50.866;7.944;2023-01-09T08:58:11;5.90;99.90
16247;DHT22;8231;50.866;7.944;2023-01-09T09:00:40;5.80;99.90
16247;DHT22;8231;50.866;7.944;2023-01-09T09:03:08;5.90;99.90
16247;DHT22;8231;50.866;7.944;2023-01-09T09:05:37;6.00;99.90
16247;DHT22;8231;50.866;7.944;2023-01-09T09:08:05;6.00;99.90
16247;DHT22;8231;50.866;7.944;2023-01-09T09:10:33;6.00;99.90
16247;DHT22;8231;50.866;7.944;2023-01-09T09:13:01;6.00;99.90
16247;DHT22;8231;50.866;7.944;2023-01-09T09:15:31;6.10;99.90
16247;DHT22;8231;50.866;7.944;2023-01-09T09:18:01;5.80;99.90
16247;DHT22;8231;50.866;7.944;2023-01-09T09:20:31;6.20;99.90
16247;DHT22;8231;50.866;7.944;2023-01-09T09:22:59;6.10;99.90
16247;DHT22;8231;50.866;7.944;2023-01-09T09:25:28;6.10;99.90
16247;DHT22;8231;50.866;7.944;2023-01-09T09:27:56;6.10;99.90
16247;DHT22;8231;50.866;7.944;2023-01-09T09:30:26;6.10;99.90
16247;DHT22;8231;50.866;7.944;2023-01-09T09:32:56;6.10;99.90
16247;DHT22;8231;50.866;7.944;2023-01-09T09:35:24;6.20;99.90
16247;DHT22;8231;50.866;7.944;2023-01-09T09:37:56;6.20;99.90
16247;DHT22;8231;50.866;7.944;2023-01-09T09:43:36;6.20;99.90
16247;DHT22;8231;50.866;7.944;2023-01-09T09:46:32;6.30;99.90
16247;DHT22;8231;50.866;7.944;2023-01-09T09:49:08;6.30;99.90
16247;DHT22;8231;50.866;7.944;2023-01-09T09:51:49;6.30;99.90
16247;DHT22;8231;50.866;7.944;2023-01-09T09:54:24;6.30;99.90
16247;DHT22;8231;50.866;7.944;2023-01-09T09:56:56;6.40;99.90
16247;DHT22;8231;50.866;7.944;2023-01-09T09:59:27;6.40;99.90
16247;DHT22;8231;50.866;7.944;2023-01-09T10:01:58;6.40;99.90
16247;DHT22;8231;50.866;7.944;2023-01-09T10:04:31;6.40;99.90
16247;DHT22;8231;50.866;7.944;2023-01-09T10:07:03;6.40;99.90
16247;DHT22;8231;50.866;7.944;2023-01-09T10:09:41;6.50;99.90
16247;DHT22;8231;50.866;7.944;2023-01-09T10:12:25;6.60;99.90
16247;DHT22;8231;50.866;7.944;2023-01-09T10:14:55;6.60;99.90
16247;DHT22;8231;50.866;7.944;2023-01-09T10:17:42;6.60;99.90
16247;DHT22;8231;50.866;7.944;2023-01-09T10:20:47;6.50;99.90
16247;DHT22;8231;50.866;7.944;2023-01-09T10:23:33;6.60;99.90
16247;DHT22;8231;50.866;7.944;2023-01-09T10:26:10;6.70;99.90
16247;DHT22;8231;50.866;7.944;2023-01-09T10:28:49;6.70;99.90
16247;DHT22;8231;50.866;7.944;2023-01-09T10:31:26;6.70;99.90
16247;DHT22;8231;50.866;7.944;2023-01-09T10:34:06;6.80;99.90
16247;DHT22;8231;50.866;7.944;2023-01-09T10:37:08;6.80;99.90
16247;DHT22;8231;50.866;7.944;2023-01-09T10:39:41;6.80;99.90
16247;DHT22;8231;50.866;7.944;2023-01-09T10:42:19;6.80;99.90
16247;DHT22;8231;50.866;7.944;2023-01-09T10:44:53;6.80;99.90
16247;DHT22;8231;50.866;7.944;2023-01-09T10:47:26;6.80;99.90
16247;DHT22;8231;50.866;7.944;2023-01-09T10:49:56;6.90;99.90
16247;DHT22;8231;50.866;7.944;2023-01-09T10:52:31;6.80;99.90
16247;DHT22;8231;50.866;7.944;2023-01-09T10:55:03;6.80;99.90
16247;DHT22;8231;50.866;7.944;2023-01-09T10:57:40;6.80;99.90
16247;DHT22;8231;50.866;7.944;2023-01-09T11:00:17;6.90;99.90
16247;DHT22;8231;50.866;7.944;2023-01-09T11:02:51;6.90;99.90
16247;DHT22;8231;50.866;7.944;2023-01-09T11:05:22;6.90;99.90
16247;DHT22;8231;50.866;7.944;2023-01-09T11:07:57;6.90;99.90
16247;DHT22;8231;50.866;7.944;2023-01-09T11:10:44;7.00;99.90
16247;DHT22;8231;50.866;7.944;2023-01-09T11:13:18;7.00;99.90
16247;DHT22;8231;50.866;7.944;2023-01-09T11:15:59;7.00;99.90
16247;DHT22;8231;50.866;7.944;2023-01-09T11:18:27;7.00;99.90
16247;DHT22;8231;50.866;7.944;2023-01-09T11:20:55;7.00;99.90
16247;DHT22;8231;50.866;7.944;2023-01-09T11:23:31;7.10;99.90
16247;DHT22;8231;50.866;7.944;2023-01-09T11:26:01;7.10;99.90
16247;DHT22;8231;50.866;7.944;2023-01-09T11:28:29;7.20;99.90
16247;DHT22;8231;50.866;7.944;2023-01-09T11:30:58;7.30;99.90
16247;DHT22;8231;50.866;7.944;2023-01-09T11:33:28;7.30;99.90
16247;DHT22;8231;50.866;7.944;2023-01-09T11:36:05;7.30;99.90
16247;DHT22;8231;50.866;7.944;2023-01-09T11:38:47;7.30;99.90
16247;DHT22;8231;50.866;7.944;2023-01-09T11:41:18;7.40;99.90
16247;DHT22;8231;50.866;7.944;2023-01-09T11:43:49;7.50;99.90
16247;DHT22;8231;50.866;7.944;2023-01-09T11:46:33;7.60;99.90
16247;DHT22;8231;50.866;7.944;2023-01-09T11:49:04;7.60;99.90
16247;DHT22;8231;50.866;7.944;2023-01-09T11:51:34;7.60;99.90
16247;DHT22;8231;50.866;7.944;2023-01-09T11:54:14;7.60;99.90
16247;DHT22;8231;50.866;7.944;2023-01-09T11:56:43;7.60;99.90
16247;DHT22;8231;50.866;7.944;2023-01-09T11:59:14;7.60;99.90
16247;DHT22;8231;50.866;7.944;2023-01-09T12:01:58;7.40;99.90
16247;DHT22;8231;50.866;7.944;2023-01-09T12:04:30;7.40;99.90
16247;DHT22;8231;50.866;7.944;2023-01-09T12:10:09;7.40;99.90
16247;DHT22;8231;50.866;7.944;2023-01-09T12:12:45;7.30;99.90
16247;DHT22;8231;50.866;7.944;2023-01-09T12:15:22;7.20;99.90
16247;DHT22;8231;50.866;7.944;2023-01-09T12:18:11;7.10;99.90
16247;DHT22;8231;50.866;7.944;2023-01-09T12:20:52;7.20;99.90
16247;DHT22;8231;50.866;7.944;2023-01-09T12:23:34;7.10;99.90
16247;DHT22;8231;50.866;7.944;2023-01-09T12:26:15;7.00;99.90
16247;DHT22;8231;50.866;7.944;2023-01-09T12:29:05;7.00;99.90
16247;DHT22;8231;50.866;7.944;2023-01-09T12:31:47;7.10;99.90
16247;DHT22;8231;50.866;7.944;2023-01-09T12:34:39;7.20;99.90
16247;DHT22;8231;50.866;7.944;2023-01-09T12:37:30;7.10;99.90
16247;DHT22;8231;50.866;7.944;2023-01-09T12:40:05;7.10;99.90
16247;DHT22;8231;50.866;7.944;2023-01-09T12:42:44;7.10;99.90
16247;DHT22;8231;50.866;7.944;2023-01-09T12:45:32;7.10;99.90
16247;DHT22;8231;50.866;7.944;2023-01-09T12:48:06;7.00;99.90
16247;DHT22;8231;50.866;7.944;2023-01-09T12:50:53;7.00;99.90
16247;DHT22;8231;50.866;7.944;2023-01-09T12:53:27;6.90;99.90
16247;DHT22;8231;50.866;7.944;2023-01-09T12:56:02;6.90;99.90
16247;DHT22;8231;50.866;7.944;2023-01-09T12:58:38;6.90;99.90
16247;DHT22;8231;50.866;7.944;2023-01-09T13:01:12;6.90;99.90
16247;DHT22;8231;50.866;7.944;2023-01-09T13:03:45;6.90;99.90
16247;DHT22;8231;50.866;7.944;2023-01-09T13:06:16;6.90;99.90
16247;DHT22;8231;50.866;7.944;2023-01-09T13:08:47;6.90;99.90
16247;DHT22;8231;50.866;7.944;2023-01-09T13:11:21;6.80;99.90
16247;DHT22;8231;50.866;7.944;2023-01-09T13:13:54;6.80;99.90
16247;DHT22;8231;50.866;7.944;2023-01-09T13:16:26;6.90;99.90
16247;DHT22;8231;50.866;7.944;2023-01-09T13:18:57;6.80;99.90
16247;DHT22;8231;50.866;7.944;2023-01-09T13:21:26;6.80;99.90
16247;DHT22;8231;50.866;7.944;2023-01-09T13:23:58;6.80;99.90
16247;DHT22;8231;50.866;7.944;2023-01-09T13:26:30;6.80;99.90
16247;DHT22;8231;50.866;7.944;2023-01-09T13:29:07;6.80;99.90
16247;DHT22;8231;50.866;7.944;2023-01-09T13:31:53;6.80;99.90
16247;DHT22;8231;50.866;7.944;2023-01-09T13:34:25;6.70;99.90
16247;DHT22;8231;50.866;7.944;2023-01-09T13:36:55;6.70;99.90
16247;DHT22;8231;50.866;7.944;2023-01-09T13:39:26;6.70;99.90
16247;DHT22;8231;50.866;7.944;2023-01-09T13:41:57;6.60;99.90
16247;DHT22;8231;50.866;7.944;2023-01-09T13:44:46;6.60;99.90
16247;DHT22;8231;50.866;7.944;2023-01-09T13:47:18;6.50;99.90
16247;DHT22;8231;50.866;7.944;2023-01-09T13:50:20;6.60;99.90
16247;DHT22;8231;50.866;7.944;2023-01-09T13:52:48;6.60;99.90
16247;DHT22;8231;50.866;7.944;2023-01-09T13:55:26;6.60;99.90
16247;DHT22;8231;50.866;7.944;2023-01-09T14:00:58;6.70;99.90
16247;DHT22;8231;50.866;7.944;2023-01-09T14:03:30;6.70;99.90
16247;DHT22;8231;50.866;7.944;2023-01-09T14:06:23;6.70;99.90
16247;DHT22;8231;50.866;7.944;2023-01-09T14:09:21;6.70;99.90
16247;DHT22;8231;50.866;7.944;2023-01-09T14:12:01;6.70;99.90
16247;DHT22;8231;50.866;7.944;2023-01-09T14:14:31;6.70;99.90
16247;DHT22;8231;50.866;7.944;2023-01-09T14:17:14;6.70;99.90
16247;DHT22;8231;50.866;7.944;2023-01-09T14:19:43;6.70;99.90
16247;DHT22;8231;50.866;7.944;2023-01-09T14:22:27;6.70;99.90
16247;DHT22;8231;50.866;7.944;2023-01-09T14:25:02;6.70;99.90
16247;DHT22;8231;50.866;7.944;2023-01-09T14:27:50;6.70;99.90
16247;DHT22;8231;50.866;7.944;2023-01-09T14:30:32;6.70;99.90
16247;DHT22;8231;50.866;7.944;2023-01-09T14:33:02;6.70;99.90
16247;DHT22;8231;50.866;7.944;2023-01-09T14:35:39;6.70;99.90
16247;DHT22;8231;50.866;7.944;2023-01-09T14:38:25;6.80;99.90
16247;DHT22;8231;50.866;7.944;2023-01-09T14:40:59;6.70;99.90
16247;DHT22;8231;50.866;7.944;2023-01-09T14:43:43;6.70;99.90
16247;DHT22;8231;50.866;7.944;2023-01-09T14:46:14;6.70;99.90
16247;DHT22;8231;50.866;7.944;2023-01-09T14:48:54;6.70;99.90
16247;DHT22;8231;50.866;7.944;2023-01-09T14:51:25;6.70;99.90
16247;DHT22;8231;50.866;7.944;2023-01-09T14:53:55;6.70;99.90
16247;DHT22;8231;50.866;7.944;2023-01-09T14:56:28;6.70;99.90
16247;DHT22;8231;50.866;7.944;2023-01-09T14:59:10;6.70;99.90
16247;DHT22;8231;50.866;7.944;2023-01-09T15:01:40;6.60;99.90
16247;DHT22;8231;50.866;7.944;2023-01-09T15:04:21;6.60;99.90
16247;DHT22;8231;50.866;7.944;2023-01-09T15:06:50;6.60;99.90
16247;DHT22;8231;50.866;7.944;2023-01-09T15:09:22;6.60;99.90
16247;DHT22;8231;50.866;7.944;2023-01-09T15:11:52;6.50;99.90
16247;DHT22;8231;50.866;7.944;2023-01-09T15:14:28;6.50;99.90
16247;DHT22;8231;50.866;7.944;2023-01-09T15:16:58;6.50;99.90
16247;DHT22;8231;50.866;7.944;2023-01-09T15:19:29;6.40;99.90
16247;DHT22;8231;50.866;7.944;2023-01-09T15:22:03;6.40;99.90
16247;DHT22;8231;50.866;7.944;2023-01-09T15:24:33;6.40;99.90
16247;DHT22;8231;50.866;7.944;2023-01-09T15:27:02;6.30;99.90
16247;DHT22;8231;50.866;7.944;2023-01-09T15:29:31;6.30;99.90
16247;DHT22;8231;50.866;7.944;2023-01-09T15:32:02;6.30;99.90
16247;DHT22;8231;50.866;7.944;2023-01-09T15:34:32;6.30;99.90
16247;DHT22;8231;50.866;7.944;2023-01-09T15:37:02;6.20;99.90
16247;DHT22;8231;50.866;7.944;2023-01-09T15:39:34;6.20;99.90
16247;DHT22;8231;50.866;7.944;2023-01-09T15:42:10;6.20;99.90
16247;DHT22;8231;50.866;7.944;2023-01-09T15:45:04;6.20;99.90
16247;DHT22;8231;50.866;7.944;2023-01-09T15:47:32;6.10;99.90
16247;DHT22;8231;50.866;7.944;2023-01-09T15:50:03;6.10;99.90
16247;DHT22;8231;50.866;7.944;2023-01-09T15:52:31;6.10;99.90
16247;DHT22;8231;50.866;7.944;2023-01-09T15:54:59;6.10;99.90
16247;DHT22;8231;50.866;7.944;2023-01-09T15:57:31;6.10;99.90
16247;DHT22;8231;50.866;7.944;2023-01-09T16:00:25;6.10;99.90
16247;DHT22;8231;50.866;7.944;2023-01-09T16:02:57;6.10;99.90
16247;DHT22;8231;50.866;7.944;2023-01-09T16:05:40;6.20;99.90
16247;DHT22;8231;50.866;7.944;2023-01-09T16:08:21;6.10;99.90
16247;DHT22;8231;50.866;7.944;2023-01-09T16:10:52;6.00;99.90
16247;DHT22;8231;50.866;7.944;2023-01-09T16:13:22;6.00;99.90
16247;DHT22;8231;50.866;7.944;2023-01-09T16:15:52;6.00;99.90
16247;DHT22;8231;50.866;7.944;2023-01-09T16:18:33;6.20;99.90
16247;DHT22;8231;50.866;7.944;2023-01-09T16:21:31;5.90;99.90
16247;DHT22;8231;50.866;7.944;2023-01-09T16:24:02;5.90;99.90
16247;DHT22;8231;50.866;7.944;2023-01-09T16:26:33;5.80;99.90
16247;DHT22;8231;50.866;7.944;2023-01-09T16:29:27;5.90;99.90
16247;DHT22;8231;50.866;7.944;2023-01-09T16:31:59;5.80;99.90
16247;DHT22;8231;50.866;7.944;2023-01-09T16:34:27;5.80;99.90
16247;DHT22;8231;50.866;7.944;2023-01-09T16:36:57;5.80;99.90
16247;DHT22;8231;50.866;7.944;2023-01-09T16:39:26;5.80;99.90
16247;DHT22;8231;50.866;7.944;2023-01-09T16:41:56;5.80;99.90
16247;DHT22;8231;50.866;7.944;2023-01-09T16:44:42;5.80;99.90
16247;DHT22;8231;50.866;7.944;2023-01-09T16:47:10;5.80;99.90
16247;DHT22;8231;50.866;7.944;2023-01-09T16:49:39;5.80;99.90